sensor_id;sensor_type;location;lat;lon;timestamp;P1;durP1;ratioP1;P2;durP2;ratioP2
22421;SDS011;11378;51.642;7.668;2022-08-19T00:00:26;2.92;;;2.70;;
22421;SDS011;11378;51.642;7.668;2022-08-19T00:02:52;3.25;;;2.95;;
22421;SDS011;11378;51.642;7.668;2022-08-19T00:05:19;3.25;;;2.95;;
22421;SDS011;11378;51.642;7.668;2022-08-19T00:07:46;3.33;;;3.00;;
22421;SDS011;11378;51.642;7.668;2022-08-19T00:10:14;3.58;;;3.15;;
22421;SDS011;11378;51.642;7.668;2022-08-19T00:12:41;4.15;;;3.10;;
22421;SDS011;11378;51.642;7.668;2022-08-19T00:15:08;3.30;;;3.00;;
22421;SDS011;11378;51.642;7.668;2022-08-19T00:17:37;4.28;;;2.75;;
22421;SDS011;11378;51.642;7.668;2022-08-19T00:20:04;3.03;;;2.72;;
22421;SDS011;11378;51.642;7.668;2022-08-19T00:22:31;2.78;;;2.58;;
22421;SDS011;11378;51.642;7.668;2022-08-19T00:24:58;3.40;;;3.10;;
22421;SDS011;11378;51.642;7.668;2022-08-19T00:27:25;3.05;;;2.80;;
22421;SDS011;11378;51.642;7.668;2022-08-19T00:29:51;3.20;;;2.90;;
22421;SDS011;11378;51.642;7.668;2022-08-19T00:32:17;3.45;;;2.90;;
22421;SDS011;11378;51.642;7.668;2022-08-19T00:34:44;3.15;;;2.85;;
22421;SDS011;11378;51.642;7.668;2022-08-19T00:37:10;2.90;;;2.70;;
22421;SDS011;11378;51.642;7.668;2022-08-19T00:39:36;2.92;;;2.67;;
22421;SDS011;11378;51.642;7.668;2022-08-19T00:42:03;3.17;;;2.75;;
22421;SDS011;11378;51.642;7.668;2022-08-19T00:44:31;3.28;;;2.97;;
22421;SDS011;11378;51.642;7.668;2022-08-19T00:46:58;2.80;;;2.60;;
22421;SDS011;11378;51.642;7.668;2022-08-19T00:49:31;3.65;;;2.90;;
22421;SDS011;11378;51.642;7.668;2022-08-19T00:52:04;2.92;;;2.67;;
22421;SDS011;11378;51.642;7.668;2022-08-19T00:54:33;3.60;;;3.08;;
22421;SDS011;11378;51.642;7.668;2022-08-19T00:56:59;4.03;;;3.13;;
22421;SDS011;11378;51.642;7.668;2022-08-19T00:59:28;3.25;;;2.78;;
22421;SDS011;11378;51.642;7.668;2022-08-19T01:01:55;3.42;;;2.70;;
22421;SDS011;11378;51.642;7.668;2022-08-19T01:04:21;4.03;;;3.10;;
22421;SDS011;11378;51.642;7.668;2022-08-19T01:06:47;4.07;;;3.03;;
22421;SDS011;11378;51.642;7.668;2022-08-19T01:09:14;3.03;;;2.80;;
22421;SDS011;11378;51.642;7.668;2022-08-19T01:11:41;3.80;;;2.65;;
22421;SDS011;11378;51.642;7.668;2022-08-19T01:14:09;4.82;;;2.80;;
22421;SDS011;11378;51.642;7.668;2022-08-19T01:16:36;3.90;;;2.90;;
22421;SDS011;11378;51.642;7.668;2022-08-19T01:19:03;3.22;;;2.95;;
22421;SDS011;11378;51.642;7.668;2022-08-19T01:21:40;3.85;;;3.08;;
22421;SDS011;11378;51.642;7.668;2022-08-19T01:24:07;3.10;;;2.67;;
22421;SDS011;11378;51.642;7.668;2022-08-19T01:26:38;3.00;;;2.72;;
22421;SDS011;11378;51.642;7.668;2022-08-19T01:29:05;3.10;;;2.80;;
22421;SDS011;11378;51.642;7.668;2022-08-19T01:31:33;3.15;;;2.67;;
22421;SDS011;11378;51.642;7.668;2022-08-19T01:34:00;3.97;;;2.70;;
22421;SDS011;11378;51.642;7.668;2022-08-19T01:36:31;3.00;;;2.80;;
22421;SDS011;11378;51.642;7.668;2022-08-19T01:38:58;2.90;;;2.60;;
22421;SDS011;11378;51.642;7.668;2022-08-19T01:41:25;3.15;;;2.85;;
22421;SDS011;11378;51.642;7.668;2022-08-19T01:43:52;3.00;;;2.80;;
22421;SDS011;11378;51.642;7.668;2022-08-19T01:46:18;3.00;;;2.67;;
22421;SDS011;11378;51.642;7.668;2022-08-19T01:48:45;2.55;;;2.35;;
22421;SDS011;11378;51.642;7.668;2022-08-19T01:51:12;3.13;;;2.83;;
22421;SDS011;11378;51.642;7.668;2022-08-19T01:53:39;2.72;;;2.53;;
22421;SDS011;11378;51.642;7.668;2022-08-19T01:56:05;2.83;;;2.63;;
22421;SDS011;11378;51.642;7.668;2022-08-19T01:58:34;3.13;;;2.83;;
22421;SDS011;11378;51.642;7.668;2022-08-19T02:01:02;3.67;;;2.70;;
22421;SDS011;11378;51.642;7.668;2022-08-19T02:03:29;3.88;;;2.70;;
22421;SDS011;11378;51.642;7.668;2022-08-19T02:05:56;3.38;;;2.70;;
22421;SDS011;11378;51.642;7.668;2022-08-19T02:08:28;3.22;;;2.72;;
22421;SDS011;11378;51.642;7.668;2022-08-19T02:10:54;3.13;;;2.80;;
22421;SDS011;11378;51.642;7.668;2022-08-19T02:13:23;3.05;;;2.78;;
22421;SDS011;11378;51.642;7.668;2022-08-19T02:15:50;2.80;;;2.60;;
22421;SDS011;11378;51.642;7.668;2022-08-19T02:18:17;3.10;;;2.80;;
22421;SDS011;11378;51.642;7.668;2022-08-19T02:20:43;3.28;;;2.83;;
22421;SDS011;11378;51.642;7.668;2022-08-19T02:23:12;5.77;;;2.90;;
22421;SDS011;11378;51.642;7.668;2022-08-19T02:25:38;2.78;;;2.58;;
22421;SDS011;11378;51.642;7.668;2022-08-19T02:28:05;3.20;;;2.75;;
22421;SDS011;11378;51.642;7.668;2022-08-19T02:30:32;3.03;;;2.72;;
22421;SDS011;11378;51.642;7.668;2022-08-19T02:32:58;3.08;;;2.40;;
22421;SDS011;11378;51.642;7.668;2022-08-19T02:35:25;2.53;;;2.33;;
22421;SDS011;11378;51.642;7.668;2022-08-19T02:37:51;2.85;;;2.60;;
22421;SDS011;11378;51.642;7.668;2022-08-19T02:40:36;2.92;;;2.63;;
22421;SDS011;11378;51.642;7.668;2022-08-19T02:43:04;3.25;;;2.35;;
22421;SDS011;11378;51.642;7.668;2022-08-19T02:45:33;2.78;;;2.53;;
22421;SDS011;11378;51.642;7.668;2022-08-19T02:48:00;3.85;;;2.55;;
22421;SDS011;11378;51.642;7.668;2022-08-19T02:50:26;3.47;;;2.65;;
22421;SDS011;11378;51.642;7.668;2022-08-19T02:52:53;3.00;;;2.70;;
22421;SDS011;11378;51.642;7.668;2022-08-19T02:55:19;4.20;;;2.60;;
22421;SDS011;11378;51.642;7.668;2022-08-19T02:57:46;2.60;;;2.40;;
22421;SDS011;11378;51.642;7.668;2022-08-19T03:00:13;2.80;;;2.50;;
22421;SDS011;11378;51.642;7.668;2022-08-19T03:02:40;2.92;;;2.47;;
22421;SDS011;11378;51.642;7.668;2022-08-19T03:05:07;2.63;;;2.42;;
22421;SDS011;11378;51.642;7.668;2022-08-19T03:07:35;3.05;;;2.42;;
22421;SDS011;11378;51.642;7.668;2022-08-19T03:10:01;2.95;;;2.30;;
22421;SDS011;11378;51.642;7.668;2022-08-19T03:12:28;2.50;;;2.30;;
22421;SDS011;11378;51.642;7.668;2022-08-19T03:14:54;3.40;;;2.70;;
22421;SDS011;11378;51.642;7.668;2022-08-19T03:17:21;3.38;;;2.30;;
22421;SDS011;11378;51.642;7.668;2022-08-19T03:19:47;3.28;;;2.72;;
22421;SDS011;11378;51.642;7.668;2022-08-19T03:22:14;3.35;;;2.50;;
22421;SDS011;11378;51.642;7.668;2022-08-19T03:24:40;2.75;;;2.33;;
22421;SDS011;11378;51.642;7.668;2022-08-19T03:27:06;4.68;;;2.40;;
22421;SDS011;11378;51.642;7.668;2022-08-19T03:29:33;3.40;;;2.65;;
22421;SDS011;11378;51.642;7.668;2022-08-19T03:32:03;2.70;;;2.30;;
22421;SDS011;11378;51.642;7.668;2022-08-19T03:34:30;2.78;;;2.45;;
22421;SDS011;11378;51.642;7.668;2022-08-19T03:36:59;2.72;;;2.50;;
22421;SDS011;11378;51.642;7.668;2022-08-19T03:39:25;2.78;;;2.50;;
22421;SDS011;11378;51.642;7.668;2022-08-19T03:41:53;2.63;;;2.42;;
22421;SDS011;11378;51.642;7.668;2022-08-19T03:44:22;3.17;;;2.50;;
22421;SDS011;11378;51.642;7.668;2022-08-19T03:46:53;2.38;;;2.15;;
22421;SDS011;11378;51.642;7.668;2022-08-19T03:49:21;2.75;;;2.53;;
22421;SDS011;11378;51.642;7.668;2022-08-19T03:51:49;2.75;;;2.55;;
22421;SDS011;11378;51.642;7.668;2022-08-19T03:54:16;2.65;;;2.45;;
22421;SDS011;11378;51.642;7.668;2022-08-19T03:56:43;2.80;;;2.50;;
22421;SDS011;11378;51.642;7.668;2022-08-19T03:59:13;2.85;;;2.65;;
22421;SDS011;11378;51.642;7.668;2022-08-19T04:01:39;2.90;;;2.63;;
22421;SDS011;11378;51.642;7.668;2022-08-19T04:04:06;4.07;;;2.40;;
22421;SDS011;11378;51.642;7.668;2022-08-19T04:06:34;3.30;;;2.80;;
22421;SDS011;11378;51.642;7.668;2022-08-19T04:09:02;2.70;;;2.50;;
22421;SDS011;11378;51.642;7.668;2022-08-19T04:11:31;2.63;;;2.42;;
22421;SDS011;11378;51.642;7.668;2022-08-19T04:13:57;2.55;;;2.35;;
22421;SDS011;11378;51.642;7.668;2022-08-19T04:16:24;2.70;;;2.50;;
22421;SDS011;11378;51.642;7.668;2022-08-19T04:18:54;7.07;;;2.65;;
22421;SDS011;11378;51.642;7.668;2022-08-19T04:21:22;2.88;;;2.60;;
22421;SDS011;11378;51.642;7.668;2022-08-19T04:23:48;2.40;;;2.20;;
22421;SDS011;11378;51.642;7.668;2022-08-19T04:26:15;2.47;;;2.28;;
22421;SDS011;11378;51.642;7.668;2022-08-19T04:28:42;2.90;;;2.67;;
22421;SDS011;11378;51.642;7.668;2022-08-19T04:31:30;2.90;;;2.58;;
22421;SDS011;11378;51.642;7.668;2022-08-19T04:34:00;2.70;;;2.40;;
22421;SDS011;11378;51.642;7.668;2022-08-19T04:36:28;6.63;;;2.22;;
22421;SDS011;11378;51.642;7.668;2022-08-19T04:38:56;2.75;;;2.50;;
22421;SDS011;11378;51.642;7.668;2022-08-19T04:41:23;3.10;;;2.42;;
22421;SDS011;11378;51.642;7.668;2022-08-19T04:44:09;2.85;;;2.55;;
22421;SDS011;11378;51.642;7.668;2022-08-19T04:46:35;2.50;;;2.30;;
22421;SDS011;11378;51.642;7.668;2022-08-19T04:49:03;2.45;;;2.25;;
22421;SDS011;11378;51.642;7.668;2022-08-19T04:51:30;2.80;;;2.25;;
22421;SDS011;11378;51.642;7.668;2022-08-19T04:53:57;2.60;;;2.40;;
22421;SDS011;11378;51.642;7.668;2022-08-19T04:56:25;2.63;;;2.40;;
22421;SDS011;11378;51.642;7.668;2022-08-19T04:58:52;2.70;;;2.50;;
22421;SDS011;11378;51.642;7.668;2022-08-19T05:01:21;2.63;;;2.42;;
22421;SDS011;11378;51.642;7.668;2022-08-19T05:03:48;2.50;;;2.30;;
22421;SDS011;11378;51.642;7.668;2022-08-19T05:06:15;2.58;;;2.38;;
22421;SDS011;11378;51.642;7.668;2022-08-19T05:08:42;3.05;;;2.40;;
22421;SDS011;11378;51.642;7.668;2022-08-19T05:11:19;3.60;;;2.30;;
22421;SDS011;11378;51.642;7.668;2022-08-19T05:13:46;3.47;;;2.47;;
22421;SDS011;11378;51.642;7.668;2022-08-19T05:16:14;2.72;;;2.50;;
22421;SDS011;11378;51.642;7.668;2022-08-19T05:18:41;2.30;;;2.10;;
22421;SDS011;11378;51.642;7.668;2022-08-19T05:21:26;2.70;;;2.50;;
22421;SDS011;11378;51.642;7.668;2022-08-19T05:24:12;2.70;;;2.47;;
22421;SDS011;11378;51.642;7.668;2022-08-19T05:26:39;2.67;;;2.42;;
22421;SDS011;11378;51.642;7.668;2022-08-19T05:29:06;2.50;;;2.30;;
22421;SDS011;11378;51.642;7.668;2022-08-19T05:31:33;2.85;;;2.60;;
22421;SDS011;11378;51.642;7.668;2022-08-19T05:34:00;3.78;;;2.72;;
22421;SDS011;11378;51.642;7.668;2022-08-19T05:36:27;3.45;;;2.35;;
22421;SDS011;11378;51.642;7.668;2022-08-19T05:38:54;2.83;;;2.30;;
22421;SDS011;11378;51.642;7.668;2022-08-19T05:41:21;2.78;;;2.50;;
22421;SDS011;11378;51.642;7.668;2022-08-19T05:43:55;3.25;;;2.60;;
22421;SDS011;11378;51.642;7.668;2022-08-19T05:46:21;2.97;;;2.55;;
22421;SDS011;11378;51.642;7.668;2022-08-19T05:48:48;2.95;;;2.65;;
22421;SDS011;11378;51.642;7.668;2022-08-19T05:51:15;3.42;;;2.60;;
22421;SDS011;11378;51.642;7.668;2022-08-19T05:53:42;2.95;;;2.65;;
22421;SDS011;11378;51.642;7.668;2022-08-19T05:56:11;2.97;;;2.67;;
22421;SDS011;11378;51.642;7.668;2022-08-19T05:58:39;2.88;;;2.53;;
22421;SDS011;11378;51.642;7.668;2022-08-19T06:01:11;3.00;;;2.70;;
22421;SDS011;11378;51.642;7.668;2022-08-19T06:03:38;3.35;;;2.92;;
22421;SDS011;11378;51.642;7.668;2022-08-19T06:06:06;3.20;;;2.83;;
22421;SDS011;11378;51.642;7.668;2022-08-19T06:08:33;3.55;;;2.80;;
22421;SDS011;11378;51.642;7.668;2022-08-19T06:11:14;4.60;;;2.60;;
22421;SDS011;11378;51.642;7.668;2022-08-19T06:13:41;2.90;;;2.53;;
22421;SDS011;11378;51.642;7.668;2022-08-19T06:16:08;3.10;;;2.80;;
22421;SDS011;11378;51.642;7.668;2022-08-19T06:18:34;2.72;;;2.50;;
22421;SDS011;11378;51.642;7.668;2022-08-19T06:21:01;3.20;;;2.72;;
22421;SDS011;11378;51.642;7.668;2022-08-19T06:23:29;3.13;;;2.78;;
22421;SDS011;11378;51.642;7.668;2022-08-19T06:25:55;2.78;;;2.55;;
22421;SDS011;11378;51.642;7.668;2022-08-19T06:28:22;3.40;;;3.10;;
22421;SDS011;11378;51.642;7.668;2022-08-19T06:30:48;4.35;;;2.80;;
22421;SDS011;11378;51.642;7.668;2022-08-19T06:33:16;3.53;;;2.97;;
22421;SDS011;11378;51.642;7.668;2022-08-19T06:35:43;3.78;;;3.25;;
22421;SDS011;11378;51.642;7.668;2022-08-19T06:38:09;3.35;;;3.05;;
22421;SDS011;11378;51.642;7.668;2022-08-19T06:40:36;3.75;;;3.20;;
22421;SDS011;11378;51.642;7.668;2022-08-19T06:43:03;4.05;;;2.90;;
22421;SDS011;11378;51.642;7.668;2022-08-19T06:45:29;3.10;;;2.65;;
22421;SDS011;11378;51.642;7.668;2022-08-19T06:47:56;2.97;;;2.67;;
22421;SDS011;11378;51.642;7.668;2022-08-19T06:50:23;3.20;;;2.78;;
22421;SDS011;11378;51.642;7.668;2022-08-19T06:52:49;4.00;;;2.97;;
22421;SDS011;11378;51.642;7.668;2022-08-19T06:55:16;3.00;;;2.70;;
22421;SDS011;11378;51.642;7.668;2022-08-19T06:57:43;3.53;;;2.80;;
22421;SDS011;11378;51.642;7.668;2022-08-19T07:00:11;5.15;;;2.50;;
22421;SDS011;11378;51.642;7.668;2022-08-19T07:05:07;3.65;;;2.72;;
22421;SDS011;11378;51.642;7.668;2022-08-19T07:07:33;3.25;;;2.92;;
22421;SDS011;11378;51.642;7.668;2022-08-19T07:10:00;2.95;;;2.55;;
22421;SDS011;11378;51.642;7.668;2022-08-19T07:12:30;4.40;;;3.00;;
22421;SDS011;11378;51.642;7.668;2022-08-19T07:14:58;3.40;;;3.10;;
22421;SDS011;11378;51.642;7.668;2022-08-19T07:17:24;4.90;;;2.67;;
22421;SDS011;11378;51.642;7.668;2022-08-19T07:19:51;3.45;;;3.00;;
22421;SDS011;11378;51.642;7.668;2022-08-19T07:22:17;3.35;;;3.05;;
22421;SDS011;11378;51.642;7.668;2022-08-19T07:24:47;3.70;;;3.30;;
22421;SDS011;11378;51.642;7.668;2022-08-19T07:27:14;4.22;;;3.30;;
22421;SDS011;11378;51.642;7.668;2022-08-19T07:29:41;3.95;;;3.33;;
22421;SDS011;11378;51.642;7.668;2022-08-19T07:32:07;4.25;;;3.33;;
22421;SDS011;11378;51.642;7.668;2022-08-19T07:34:34;4.63;;;3.63;;
22421;SDS011;11378;51.642;7.668;2022-08-19T07:37:03;3.78;;;3.35;;
22421;SDS011;11378;51.642;7.668;2022-08-19T07:39:31;3.53;;;3.22;;
22421;SDS011;11378;51.642;7.668;2022-08-19T07:41:59;3.65;;;2.80;;
22421;SDS011;11378;51.642;7.668;2022-08-19T07:44:26;5.57;;;3.35;;
22421;SDS011;11378;51.642;7.668;2022-08-19T07:46:53;3.60;;;3.08;;
22421;SDS011;11378;51.642;7.668;2022-08-19T07:49:21;2.88;;;2.63;;
22421;SDS011;11378;51.642;7.668;2022-08-19T07:51:49;4.05;;;3.65;;
22421;SDS011;11378;51.642;7.668;2022-08-19T07:54:16;6.00;;;2.92;;
22421;SDS011;11378;51.642;7.668;2022-08-19T07:56:43;3.20;;;2.90;;
22421;SDS011;11378;51.642;7.668;2022-08-19T07:59:10;5.30;;;3.22;;
22421;SDS011;11378;51.642;7.668;2022-08-19T08:01:37;4.07;;;3.60;;
22421;SDS011;11378;51.642;7.668;2022-08-19T08:04:05;5.15;;;3.30;;
22421;SDS011;11378;51.642;7.668;2022-08-19T08:06:51;3.70;;;3.40;;
22421;SDS011;11378;51.642;7.668;2022-08-19T08:09:37;4.70;;;3.30;;
22421;SDS011;11378;51.642;7.668;2022-08-19T08:12:09;3.88;;;2.92;;
22421;SDS011;11378;51.642;7.668;2022-08-19T08:14:38;3.30;;;3.00;;
22421;SDS011;11378;51.642;7.668;2022-08-19T08:17:06;4.15;;;2.85;;
22421;SDS011;11378;51.642;7.668;2022-08-19T08:19:33;4.13;;;3.05;;
22421;SDS011;11378;51.642;7.668;2022-08-19T08:22:00;5.90;;;3.05;;
22421;SDS011;11378;51.642;7.668;2022-08-19T08:24:27;3.80;;;3.50;;
22421;SDS011;11378;51.642;7.668;2022-08-19T08:26:56;3.33;;;3.03;;
22421;SDS011;11378;51.642;7.668;2022-08-19T08:29:26;4.68;;;3.15;;
22421;SDS011;11378;51.642;7.668;2022-08-19T08:31:54;2.83;;;2.63;;
22421;SDS011;11378;51.642;7.668;2022-08-19T08:34:21;3.17;;;2.80;;
22421;SDS011;11378;51.642;7.668;2022-08-19T08:36:48;4.47;;;2.90;;
22421;SDS011;11378;51.642;7.668;2022-08-19T08:39:16;3.42;;;2.90;;
22421;SDS011;11378;51.642;7.668;2022-08-19T08:41:51;3.00;;;2.70;;
22421;SDS011;11378;51.642;7.668;2022-08-19T08:44:29;3.97;;;3.00;;
22421;SDS011;11378;51.642;7.668;2022-08-19T08:46:59;2.78;;;2.58;;
22421;SDS011;11378;51.642;7.668;2022-08-19T08:49:39;3.60;;;2.75;;
22421;SDS011;11378;51.642;7.668;2022-08-19T08:52:07;2.78;;;2.42;;
22421;SDS011;11378;51.642;7.668;2022-08-19T08:54:37;2.78;;;2.40;;
22421;SDS011;11378;51.642;7.668;2022-08-19T08:57:07;2.92;;;2.63;;
22421;SDS011;11378;51.642;7.668;2022-08-19T08:59:37;3.33;;;2.70;;
22421;SDS011;11378;51.642;7.668;2022-08-19T09:02:06;2.80;;;2.60;;
22421;SDS011;11378;51.642;7.668;2022-08-19T09:04:36;3.33;;;2.80;;
22421;SDS011;11378;51.642;7.668;2022-08-19T09:09:42;2.50;;;2.30;;
22421;SDS011;11378;51.642;7.668;2022-08-19T09:14:52;2.88;;;2.55;;
22421;SDS011;11378;51.642;7.668;2022-08-19T09:17:21;3.75;;;2.58;;
22421;SDS011;11378;51.642;7.668;2022-08-19T09:22:32;3.03;;;2.45;;
22421;SDS011;11378;51.642;7.668;2022-08-19T09:24:58;2.60;;;2.30;;
22421;SDS011;11378;51.642;7.668;2022-08-19T09:27:25;2.83;;;2.38;;
22421;SDS011;11378;51.642;7.668;2022-08-19T09:29:52;2.50;;;2.30;;
22421;SDS011;11378;51.642;7.668;2022-08-19T09:32:20;2.88;;;2.58;;
22421;SDS011;11378;51.642;7.668;2022-08-19T09:34:46;2.65;;;2.45;;
22421;SDS011;11378;51.642;7.668;2022-08-19T09:37:12;2.72;;;2.53;;
22421;SDS011;11378;51.642;7.668;2022-08-19T09:39:39;3.35;;;2.10;;
22421;SDS011;11378;51.642;7.668;2022-08-19T09:42:06;2.65;;;2.38;;
22421;SDS011;11378;51.642;7.668;2022-08-19T09:44:40;2.53;;;2.33;;
22421;SDS011;11378;51.642;7.668;2022-08-19T09:47:08;2.75;;;2.30;;
22421;SDS011;11378;51.642;7.668;2022-08-19T09:49:35;3.17;;;2.15;;
22421;SDS011;11378;51.642;7.668;2022-08-19T09:52:01;2.40;;;2.20;;
22421;SDS011;11378;51.642;7.668;2022-08-19T09:54:27;2.75;;;2.55;;
22421;SDS011;11378;51.642;7.668;2022-08-19T09:56:54;2.33;;;2.13;;
22421;SDS011;11378;51.642;7.668;2022-08-19T09:59:22;3.42;;;2.33;;
22421;SDS011;11378;51.642;7.668;2022-08-19T10:01:48;2.63;;;2.28;;
22421;SDS011;11378;51.642;7.668;2022-08-19T10:04:14;3.05;;;2.30;;
22421;SDS011;11378;51.642;7.668;2022-08-19T10:06:41;2.28;;;2.08;;
22421;SDS011;11378;51.642;7.668;2022-08-19T10:09:08;2.33;;;2.08;;
22421;SDS011;11378;51.642;7.668;2022-08-19T10:11:36;3.25;;;2.40;;
22421;SDS011;11378;51.642;7.668;2022-08-19T10:14:03;2.45;;;2.25;;
22421;SDS011;11378;51.642;7.668;2022-08-19T10:16:33;2.33;;;2.13;;
22421;SDS011;11378;51.642;7.668;2022-08-19T10:19:01;4.35;;;2.35;;
22421;SDS011;11378;51.642;7.668;2022-08-19T10:21:29;2.33;;;2.08;;
22421;SDS011;11378;51.642;7.668;2022-08-19T10:23:57;2.92;;;2.40;;
22421;SDS011;11378;51.642;7.668;2022-08-19T10:26:25;2.40;;;2.20;;
22421;SDS011;11378;51.642;7.668;2022-08-19T10:28:52;2.63;;;2.40;;
22421;SDS011;11378;51.642;7.668;2022-08-19T10:31:23;3.08;;;2.60;;
22421;SDS011;11378;51.642;7.668;2022-08-19T10:33:50;2.65;;;2.40;;
22421;SDS011;11378;51.642;7.668;2022-08-19T10:36:19;2.70;;;2.50;;
22421;SDS011;11378;51.642;7.668;2022-08-19T10:38:46;3.35;;;2.17;;
22421;SDS011;11378;51.642;7.668;2022-08-19T10:41:16;3.40;;;2.20;;
22421;SDS011;11378;51.642;7.668;2022-08-19T10:43:42;2.85;;;2.10;;
22421;SDS011;11378;51.642;7.668;2022-08-19T10:46:11;4.00;;;2.42;;
22421;SDS011;11378;51.642;7.668;2022-08-19T10:48:38;3.35;;;2.22;;
22421;SDS011;11378;51.642;7.668;2022-08-19T10:51:05;2.63;;;2.42;;
22421;SDS011;11378;51.642;7.668;2022-08-19T10:53:50;2.28;;;2.08;;
22421;SDS011;11378;51.642;7.668;2022-08-19T10:56:17;2.88;;;2.58;;
22421;SDS011;11378;51.642;7.668;2022-08-19T10:59:02;4.50;;;2.17;;
22421;SDS011;11378;51.642;7.668;2022-08-19T11:01:29;3.33;;;2.30;;
22421;SDS011;11378;51.642;7.668;2022-08-19T11:03:59;3.10;;;2.63;;
22421;SDS011;11378;51.642;7.668;2022-08-19T11:06:25;3.50;;;2.60;;
22421;SDS011;11378;51.642;7.668;2022-08-19T11:08:52;2.50;;;2.30;;
22421;SDS011;11378;51.642;7.668;2022-08-19T11:11:19;3.13;;;2.58;;
22421;SDS011;11378;51.642;7.668;2022-08-19T11:13:47;2.60;;;2.40;;
22421;SDS011;11378;51.642;7.668;2022-08-19T11:16:25;2.75;;;2.55;;
22421;SDS011;11378;51.642;7.668;2022-08-19T11:18:57;3.17;;;2.85;;
22421;SDS011;11378;51.642;7.668;2022-08-19T11:21:35;2.63;;;2.42;;
22421;SDS011;11378;51.642;7.668;2022-08-19T11:24:02;2.75;;;2.45;;
22421;SDS011;11378;51.642;7.668;2022-08-19T11:26:30;2.78;;;2.35;;
22421;SDS011;11378;51.642;7.668;2022-08-19T11:28:57;2.90;;;2.70;;
22421;SDS011;11378;51.642;7.668;2022-08-19T11:31:27;2.90;;;2.60;;
22421;SDS011;11378;51.642;7.668;2022-08-19T11:33:55;4.75;;;2.55;;
22421;SDS011;11378;51.642;7.668;2022-08-19T11:36:21;4.55;;;2.40;;
22421;SDS011;11378;51.642;7.668;2022-08-19T11:38:48;2.38;;;2.17;;
22421;SDS011;11378;51.642;7.668;2022-08-19T11:41:16;2.75;;;2.42;;
22421;SDS011;11378;51.642;7.668;2022-08-19T11:43:43;2.95;;;2.65;;
22421;SDS011;11378;51.642;7.668;2022-08-19T11:46:10;2.78;;;2.58;;
22421;SDS011;11378;51.642;7.668;2022-08-19T11:48:37;2.85;;;2.50;;
22421;SDS011;11378;51.642;7.668;2022-08-19T11:51:08;2.72;;;2.53;;
22421;SDS011;11378;51.642;7.668;2022-08-19T11:53:36;2.90;;;2.70;;
22421;SDS011;11378;51.642;7.668;2022-08-19T11:56:03;3.88;;;2.38;;
22421;SDS011;11378;51.642;7.668;2022-08-19T11:58:30;2.80;;;2.53;;
22421;SDS011;11378;51.642;7.668;2022-08-19T12:00:57;3.13;;;2.83;;
22421;SDS011;11378;51.642;7.668;2022-08-19T12:03:23;3.17;;;2.92;;
22421;SDS011;11378;51.642;7.668;2022-08-19T12:05:50;2.38;;;2.17;;
22421;SDS011;11378;51.642;7.668;2022-08-19T12:08:17;2.80;;;2.60;;
22421;SDS011;11378;51.642;7.668;2022-08-19T12:10:44;2.75;;;2.55;;
22421;SDS011;11378;51.642;7.668;2022-08-19T12:13:11;2.92;;;2.63;;
22421;SDS011;11378;51.642;7.668;2022-08-19T12:15:44;2.65;;;2.45;;
22421;SDS011;11378;51.642;7.668;2022-08-19T12:18:11;2.72;;;2.53;;
22421;SDS011;11378;51.642;7.668;2022-08-19T12:20:39;4.28;;;2.63;;
22421;SDS011;11378;51.642;7.668;2022-08-19T12:23:08;3.08;;;2.78;;
22421;SDS011;11378;51.642;7.668;2022-08-19T12:25:35;2.63;;;2.42;;
22421;SDS011;11378;51.642;7.668;2022-08-19T12:28:02;3.17;;;2.88;;
22421;SDS011;11378;51.642;7.668;2022-08-19T12:30:29;2.80;;;2.58;;
22421;SDS011;11378;51.642;7.668;2022-08-19T12:32:55;3.03;;;2.45;;
22421;SDS011;11378;51.642;7.668;2022-08-19T12:35:22;3.20;;;2.90;;
22421;SDS011;11378;51.642;7.668;2022-08-19T12:37:48;3.00;;;2.50;;
22421;SDS011;11378;51.642;7.668;2022-08-19T12:40:15;2.90;;;2.70;;
22421;SDS011;11378;51.642;7.668;2022-08-19T12:42:44;3.35;;;2.40;;
22421;SDS011;11378;51.642;7.668;2022-08-19T12:45:11;3.38;;;2.70;;
22421;SDS011;11378;51.642;7.668;2022-08-19T12:47:38;4.72;;;2.85;;
22421;SDS011;11378;51.642;7.668;2022-08-19T12:50:05;3.15;;;2.33;;
22421;SDS011;11378;51.642;7.668;2022-08-19T12:52:34;2.83;;;2.55;;
22421;SDS011;11378;51.642;7.668;2022-08-19T12:55:02;3.47;;;2.80;;
22421;SDS011;11378;51.642;7.668;2022-08-19T12:57:30;3.22;;;2.67;;
22421;SDS011;11378;51.642;7.668;2022-08-19T13:00:04;2.88;;;2.67;;
22421;SDS011;11378;51.642;7.668;2022-08-19T13:02:34;2.90;;;2.67;;
22421;SDS011;11378;51.642;7.668;2022-08-19T13:05:01;2.75;;;2.55;;
22421;SDS011;11378;51.642;7.668;2022-08-19T13:07:28;2.92;;;2.63;;
22421;SDS011;11378;51.642;7.668;2022-08-19T13:09:55;3.13;;;2.75;;
22421;SDS011;11378;51.642;7.668;2022-08-19T13:12:21;3.05;;;2.85;;
22421;SDS011;11378;51.642;7.668;2022-08-19T13:14:49;3.08;;;2.78;;
22421;SDS011;11378;51.642;7.668;2022-08-19T13:17:17;3.03;;;2.83;;
22421;SDS011;11378;51.642;7.668;2022-08-19T13:19:43;3.00;;;2.70;;
22421;SDS011;11378;51.642;7.668;2022-08-19T13:22:10;3.17;;;2.97;;
22421;SDS011;11378;51.642;7.668;2022-08-19T13:24:37;3.17;;;2.88;;
22421;SDS011;11378;51.642;7.668;2022-08-19T13:27:04;3.40;;;3.10;;
22421;SDS011;11378;51.642;7.668;2022-08-19T13:29:32;3.10;;;2.80;;
22421;SDS011;11378;51.642;7.668;2022-08-19T13:32:17;3.20;;;2.60;;
22421;SDS011;11378;51.642;7.668;2022-08-19T13:35:02;3.40;;;2.55;;
22421;SDS011;11378;51.642;7.668;2022-08-19T13:37:29;3.05;;;2.67;;
22421;SDS011;11378;51.642;7.668;2022-08-19T13:40:10;2.65;;;2.45;;
22421;SDS011;11378;51.642;7.668;2022-08-19T13:42:39;4.55;;;3.25;;
22421;SDS011;11378;51.642;7.668;2022-08-19T13:45:06;2.85;;;2.58;;
22421;SDS011;11378;51.642;7.668;2022-08-19T13:47:33;2.80;;;2.60;;
22421;SDS011;11378;51.642;7.668;2022-08-19T13:50:03;3.17;;;2.88;;
22421;SDS011;11378;51.642;7.668;2022-08-19T13:54:56;3.08;;;2.88;;
22421;SDS011;11378;51.642;7.668;2022-08-19T13:57:23;2.92;;;2.72;;
22421;SDS011;11378;51.642;7.668;2022-08-19T13:59:49;3.30;;;2.92;;
22421;SDS011;11378;51.642;7.668;2022-08-19T14:02:16;3.10;;;2.80;;
22421;SDS011;11378;51.642;7.668;2022-08-19T14:04:42;2.97;;;2.78;;
22421;SDS011;11378;51.642;7.668;2022-08-19T14:07:08;3.25;;;2.95;;
22421;SDS011;11378;51.642;7.668;2022-08-19T14:09:35;2.90;;;2.70;;
22421;SDS011;11378;51.642;7.668;2022-08-19T14:12:02;3.10;;;2.80;;
22421;SDS011;11378;51.642;7.668;2022-08-19T14:14:29;4.25;;;2.83;;
22421;SDS011;11378;51.642;7.668;2022-08-19T14:16:55;3.08;;;2.80;;
22421;SDS011;11378;51.642;7.668;2022-08-19T14:19:22;3.10;;;2.90;;
22421;SDS011;11378;51.642;7.668;2022-08-19T14:21:48;2.90;;;2.65;;
22421;SDS011;11378;51.642;7.668;2022-08-19T14:24:15;4.43;;;2.88;;
22421;SDS011;11378;51.642;7.668;2022-08-19T14:26:41;3.38;;;2.65;;
22421;SDS011;11378;51.642;7.668;2022-08-19T14:29:08;3.40;;;3.10;;
22421;SDS011;11378;51.642;7.668;2022-08-19T14:31:34;3.30;;;2.95;;
22421;SDS011;11378;51.642;7.668;2022-08-19T14:34:01;3.13;;;2.90;;
22421;SDS011;11378;51.642;7.668;2022-08-19T14:36:27;3.10;;;2.90;;
22421;SDS011;11378;51.642;7.668;2022-08-19T14:38:54;3.50;;;3.20;;
22421;SDS011;11378;51.642;7.668;2022-08-19T14:41:21;3.30;;;3.00;;
22421;SDS011;11378;51.642;7.668;2022-08-19T14:43:49;3.50;;;3.17;;
22421;SDS011;11378;51.642;7.668;2022-08-19T14:46:17;3.45;;;3.15;;
22421;SDS011;11378;51.642;7.668;2022-08-19T14:48:47;5.07;;;3.25;;
22421;SDS011;11378;51.642;7.668;2022-08-19T14:51:14;3.25;;;2.95;;
22421;SDS011;11378;51.642;7.668;2022-08-19T14:53:41;3.30;;;3.03;;
22421;SDS011;11378;51.642;7.668;2022-08-19T14:56:10;3.13;;;2.92;;
22421;SDS011;11378;51.642;7.668;2022-08-19T14:58:38;3.38;;;3.08;;
22421;SDS011;11378;51.642;7.668;2022-08-19T15:01:06;3.55;;;3.25;;
22421;SDS011;11378;51.642;7.668;2022-08-19T15:03:32;3.25;;;2.95;;
22421;SDS011;11378;51.642;7.668;2022-08-19T15:06:00;3.72;;;3.42;;